createdAt,value
2018-06-15T00:01:05.918Z,19.20
2018-06-15T00:03:35.789Z,19.10
2018-06-15T00:06:07.121Z,19.20
2018-06-15T00:08:37.228Z,19.20
2018-06-15T00:11:08.520Z,19.10
2018-06-15T00:13:39.997Z,19.10
2018-06-15T00:16:11.558Z,18.30
2018-06-15T00:18:42.528Z,19.10
2018-06-15T00:21:13.581Z,19.20
2018-06-15T00:23:43.442Z,19.10
2018-06-15T00:26:13.213Z,19.10
2018-06-15T00:28:45.996Z,19.20
2018-06-15T00:31:16.089Z,19.30
2018-06-15T00:33:46.795Z,19.40
2018-06-15T00:36:19.481Z,19.30
2018-06-15T00:38:49.943Z,19.40
2018-06-15T00:41:19.809Z,19.40
2018-06-15T00:43:52.810Z,19.40
2018-06-15T00:46:23.737Z,19.20
2018-06-15T00:48:55.349Z,19.10
2018-06-15T00:51:34.672Z,19.20
2018-06-15T00:54:05.500Z,19.20
2018-06-15T00:56:35.624Z,19.30
2018-06-15T00:59:05.540Z,19.20
2018-06-15T01:01:35.970Z,19.30
2018-06-15T01:04:05.936Z,19.30
2018-06-15T01:06:36.803Z,19.30
2018-06-15T01:09:09.020Z,19.20
2018-06-15T01:11:39.058Z,19.10
2018-06-15T01:14:08.949Z,19.10
2018-06-15T01:16:42.162Z,19.00
2018-06-15T01:19:23.445Z,19.10
2018-06-15T01:21:58.142Z,19.20
2018-06-15T01:24:31.012Z,19.00
2018-06-15T01:27:04.426Z,19.00
2018-06-15T01:29:37.467Z,19.10
2018-06-15T01:32:09.027Z,17.60
2018-06-15T01:34:41.877Z,18.90
2018-06-15T01:37:13.167Z,19.00
2018-06-15T01:39:46.193Z,18.90
2018-06-15T01:43:05.187Z,18.90
2018-06-15T01:45:35.464Z,18.90
2018-06-15T01:48:06.006Z,18.90
2018-06-15T01:55:34.434Z,19.10
2018-06-15T01:58:04.207Z,19.20
2018-06-15T02:00:34.093Z,19.20
2018-06-15T02:03:06.083Z,19.20
2018-06-15T02:05:35.809Z,19.00
2018-06-15T02:08:05.560Z,19.10
2018-06-15T02:10:35.708Z,19.10
2018-06-15T02:13:05.468Z,19.20
2018-06-15T02:15:35.388Z,19.20
2018-06-15T02:18:05.564Z,19.30
2018-06-15T02:20:36.139Z,19.20
2018-06-15T02:23:06.086Z,19.30
2018-06-15T02:25:36.179Z,19.30
2018-06-15T02:28:06.908Z,19.30
2018-06-15T02:30:37.010Z,19.20
2018-06-15T02:33:06.830Z,19.10
2018-06-15T02:35:37.416Z,19.10
2018-06-15T02:38:07.292Z,19.20
2018-06-15T02:40:38.146Z,19.10
2018-06-15T02:43:08.582Z,18.90
2018-06-15T02:45:39.481Z,18.90
2018-06-15T02:48:09.292Z,19.00
2018-06-15T02:50:39.163Z,19.10
2018-06-15T02:53:09.022Z,19.10
2018-06-15T02:55:39.594Z,19.20
2018-06-15T02:58:09.717Z,19.20
2018-06-15T03:00:40.238Z,19.20
2018-06-15T03:03:10.508Z,19.10
2018-06-15T03:05:41.146Z,19.10
2018-06-15T03:08:13.247Z,19.00
2018-06-15T03:10:43.129Z,19.00
2018-06-15T03:13:13.101Z,19.00
2018-06-15T03:15:43.365Z,19.10
2018-06-15T03:18:13.871Z,19.10
2018-06-15T03:20:51.567Z,19.10
2018-06-15T03:23:21.500Z,19.10
2018-06-15T03:25:51.455Z,20.30
2018-06-15T03:28:21.272Z,19.00
2018-06-15T03:30:51.191Z,19.00
2018-06-15T03:33:35.063Z,19.00
2018-06-15T03:36:04.817Z,19.00
2018-06-15T03:38:34.654Z,19.10
2018-06-15T03:41:05.684Z,19.10
2018-06-15T03:43:35.430Z,19.10
2018-06-15T03:46:05.924Z,19.10
2018-06-15T03:48:36.421Z,19.00
2018-06-15T03:51:06.647Z,18.90
2018-06-15T03:53:36.585Z,18.90
2018-06-15T03:56:07.449Z,19.00
2018-06-15T03:58:37.764Z,19.00
2018-06-15T04:01:08.150Z,19.10
2018-06-15T04:03:38.055Z,19.10
2018-06-15T04:06:08.193Z,19.00
2018-06-15T04:08:38.173Z,19.10
2018-06-15T04:11:08.385Z,19.10
2018-06-15T04:13:38.645Z,18.80
2018-06-15T04:16:08.860Z,18.60
2018-06-15T04:18:38.948Z,18.50
2018-06-15T04:21:10.699Z,18.70
2018-06-15T04:23:40.832Z,18.90
2018-06-15T04:26:10.982Z,19.00
2018-06-15T04:31:10.633Z,19.10
2018-06-15T04:33:42.959Z,19.20
2018-06-15T04:36:12.821Z,19.20
2018-06-15T04:38:44.124Z,19.30
2018-06-15T04:41:17.056Z,19.30
2018-06-15T04:43:47.036Z,17.80
2018-06-15T04:46:17.797Z,19.40
2018-06-15T04:48:48.996Z,19.40
2018-06-15T04:51:19.061Z,19.40
2018-06-15T04:53:50.002Z,19.50
2018-06-15T04:56:19.804Z,19.60
2018-06-15T04:59:52.509Z,19.70
2018-06-15T05:02:23.209Z,19.80
2018-06-15T05:04:53.073Z,19.80
2018-06-15T05:07:27.478Z,19.80
2018-06-15T05:09:59.360Z,19.90
2018-06-15T05:12:30.983Z,20.00
2018-06-15T05:15:02.475Z,20.10
2018-06-15T05:17:33.919Z,20.30
2018-06-15T05:20:07.427Z,19.40
2018-06-15T05:22:41.503Z,20.50
2018-06-15T05:25:12.241Z,20.60
2018-06-15T05:27:59.151Z,20.70
2018-06-15T05:30:29.326Z,20.50
2018-06-15T05:32:59.723Z,20.30
2018-06-15T05:35:33.434Z,20.00
2018-06-15T05:38:03.559Z,20.30
2018-06-15T05:40:33.800Z,20.70
2018-06-15T05:43:04.335Z,20.80
2018-06-15T05:45:34.319Z,21.00
2018-06-15T05:48:06.160Z,21.00
2018-06-15T05:50:37.910Z,21.20
2018-06-15T05:53:08.625Z,22.50
2018-06-15T05:55:40.467Z,19.60
2018-06-15T05:58:11.100Z,21.40
2018-06-15T06:00:41.362Z,21.50
2018-06-15T06:03:13.632Z,21.50
2018-06-15T06:05:44.181Z,21.60
2018-06-15T06:08:14.997Z,21.70
2018-06-15T06:10:45.021Z,21.60
2018-06-15T06:13:15.786Z,21.30
2018-06-15T06:15:47.512Z,21.00
2018-06-15T06:18:18.242Z,21.20
2018-06-15T06:20:48.504Z,21.20
2018-06-15T06:23:19.617Z,21.40
2018-06-15T06:25:50.027Z,21.50
2018-06-15T06:28:24.411Z,21.70
2018-06-15T06:30:58.829Z,21.90
2018-06-15T06:33:34.697Z,21.90
2018-06-15T06:36:05.634Z,21.40
2018-06-15T06:38:36.478Z,21.50
2018-06-15T06:43:39.540Z,21.70
2018-06-15T06:46:10.419Z,22.20
2018-06-15T06:51:10.110Z,21.90
2018-06-15T06:53:41.586Z,21.60
2018-06-15T06:56:12.182Z,21.40
2018-06-15T06:58:43.429Z,21.00
2018-06-15T07:01:13.480Z,21.40
2018-06-15T07:03:44.838Z,20.20
2018-06-15T07:06:16.351Z,21.50
2018-06-15T07:08:46.454Z,21.70
2018-06-15T07:11:20.642Z,21.80
2018-06-15T07:13:51.779Z,22.20
2018-06-15T07:16:21.696Z,22.80
2018-06-15T07:18:52.068Z,23.00
2018-06-15T07:21:23.473Z,23.30
2018-06-15T07:23:54.645Z,23.00
2018-06-15T07:26:27.265Z,23.00
2018-06-15T07:29:00.478Z,23.00
2018-06-15T07:31:31.859Z,23.20
2018-06-15T07:34:09.970Z,23.00
2018-06-15T07:36:40.635Z,23.00
2018-06-15T07:39:13.645Z,22.50
2018-06-15T07:41:47.487Z,22.10
2018-06-15T07:44:18.800Z,22.10
2018-06-15T07:46:49.353Z,22.70
2018-06-15T07:49:22.313Z,22.90
2018-06-15T07:51:54.526Z,22.00
2018-06-15T07:54:25.679Z,23.60
2018-06-15T07:57:00.032Z,22.80
2018-06-15T07:59:31.026Z,23.70
2018-06-15T08:02:02.735Z,22.80
2018-06-15T08:04:35.028Z,22.70
2018-06-15T08:07:08.751Z,22.90
2018-06-15T08:09:41.671Z,22.50
2018-06-15T08:12:14.255Z,22.30
2018-06-15T08:14:47.541Z,22.60
2018-06-15T08:17:19.481Z,23.00
2018-06-15T08:19:52.487Z,24.00
2018-06-15T08:22:22.914Z,24.00
2018-06-15T08:24:54.483Z,24.40
2018-06-15T08:27:25.766Z,24.50
2018-06-15T08:30:00.437Z,24.70
2018-06-15T08:32:33.144Z,23.80
2018-06-15T08:35:07.359Z,26.30
2018-06-15T08:37:38.544Z,24.70
2018-06-15T08:40:12.741Z,24.40
2018-06-15T08:42:46.331Z,24.30
2018-06-15T08:45:18.768Z,24.00
2018-06-15T08:47:49.858Z,23.80
2018-06-15T08:50:20.491Z,24.00
2018-06-15T08:52:53.008Z,24.30
2018-06-15T08:55:23.736Z,24.50
2018-06-15T08:57:57.610Z,24.60
2018-06-15T09:00:29.315Z,24.60
2018-06-15T09:03:07.019Z,24.40
2018-06-15T09:05:39.248Z,24.40
2018-06-15T09:10:43.459Z,23.80
2018-06-15T09:13:15.553Z,23.90
2018-06-15T09:15:48.510Z,24.30
2018-06-15T09:18:20.418Z,24.50
2018-06-15T09:20:53.401Z,24.90
2018-06-15T09:23:27.041Z,25.20
2018-06-15T09:25:58.220Z,25.30
2018-06-15T09:28:28.578Z,24.80
2018-06-15T09:30:59.766Z,24.50
2018-06-15T09:33:30.718Z,25.00
2018-06-15T09:38:32.765Z,24.90
2018-06-15T09:41:05.813Z,23.40
2018-06-15T09:43:37.466Z,21.60
2018-06-15T09:46:08.286Z,21.50
2018-06-15T09:51:16.061Z,21.50
2018-06-15T09:53:51.483Z,21.90
2018-06-15T10:01:54.833Z,22.70
2018-06-15T10:04:27.362Z,23.50
2018-06-15T10:07:03.762Z,23.90
2018-06-15T10:09:42.236Z,23.90
2018-06-15T10:12:21.195Z,21.90
2018-06-15T10:14:55.485Z,21.10
2018-06-15T10:17:30.849Z,21.80
2018-06-15T10:20:08.891Z,22.40
2018-06-15T10:22:40.738Z,22.90
2018-06-15T10:25:14.180Z,23.20
2018-06-15T10:27:45.089Z,23.40
2018-06-15T10:30:16.889Z,23.50
2018-06-15T10:32:49.096Z,23.30
2018-06-15T10:35:22.926Z,23.60
2018-06-15T10:37:59.959Z,23.90
2018-06-15T10:40:37.136Z,23.90
2018-06-15T10:43:13.303Z,23.90
2018-06-15T10:45:46.348Z,24.10
2018-06-15T10:48:20.943Z,23.90
2018-06-15T10:50:53.000Z,23.80
2018-06-15T10:53:25.429Z,24.50
2018-06-15T10:55:58.794Z,25.00
2018-06-15T10:58:30.896Z,25.40
2018-06-15T11:01:03.418Z,25.60
2018-06-15T11:03:37.300Z,25.80
2018-06-15T11:06:10.056Z,25.80
2018-06-15T11:08:43.571Z,25.10
2018-06-15T11:11:14.883Z,24.40
2018-06-15T11:13:49.316Z,24.40
2018-06-15T11:16:21.935Z,25.10
2018-06-15T11:18:53.585Z,24.80
2018-06-15T11:21:28.302Z,24.10
2018-06-15T11:23:59.953Z,22.00
2018-06-15T11:26:30.872Z,23.50
2018-06-15T11:29:04.714Z,23.50
2018-06-15T11:31:48.008Z,23.40
2018-06-15T11:34:19.284Z,22.80
2018-06-15T11:36:50.593Z,22.90
2018-06-15T11:39:25.969Z,21.50
2018-06-15T11:41:56.668Z,21.50
2018-06-15T11:44:28.409Z,21.00
2018-06-15T11:47:03.331Z,21.20
2018-06-15T11:49:36.501Z,22.10
2018-06-15T11:52:08.944Z,23.70
2018-06-15T11:54:39.523Z,22.60
2018-06-15T11:57:11.511Z,22.80
2018-06-15T11:59:43.969Z,22.80
2018-06-15T12:02:16.877Z,23.00
2018-06-15T12:04:50.369Z,23.10
2018-06-15T12:07:21.988Z,23.20
2018-06-15T12:09:55.723Z,23.40
2018-06-15T12:12:28.101Z,23.60
2018-06-15T12:15:00.829Z,23.60
2018-06-15T12:17:32.733Z,23.60
2018-06-15T12:20:12.347Z,23.90
2018-06-15T12:25:48.834Z,24.50
2018-06-15T12:28:28.504Z,24.10
2018-06-15T12:31:04.628Z,25.30
2018-06-15T12:33:37.202Z,24.30
2018-06-15T12:36:08.552Z,24.30
2018-06-15T12:38:41.148Z,24.30
2018-06-15T12:41:14.487Z,24.40
2018-06-15T12:43:48.155Z,24.30
2018-06-15T12:46:23.494Z,24.50
2018-06-15T12:49:04.642Z,25.90
2018-06-15T12:51:45.211Z,24.80
2018-06-15T12:54:25.097Z,25.20
2018-06-15T12:57:00.074Z,25.10
2018-06-15T12:59:37.572Z,25.70
2018-06-15T13:02:21.439Z,25.60
2018-06-15T13:04:56.740Z,25.10
2018-06-15T13:07:30.701Z,26.40
2018-06-15T13:10:08.713Z,26.60
2018-06-15T13:12:39.605Z,26.30
2018-06-15T13:15:18.542Z,26.10
2018-06-15T13:17:53.639Z,25.30
2018-06-15T13:20:25.036Z,25.50
2018-06-15T13:22:59.174Z,25.70
2018-06-15T13:25:31.954Z,25.60
2018-06-15T13:28:08.185Z,25.70
2018-06-15T13:30:40.400Z,25.90
2018-06-15T13:33:17.906Z,26.00
2018-06-15T13:35:50.280Z,26.20
2018-06-15T13:38:25.437Z,26.40
2018-06-15T13:40:58.653Z,26.50
2018-06-15T13:43:34.722Z,25.90
2018-06-15T13:46:06.198Z,26.20
2018-06-15T13:48:37.542Z,25.80
2018-06-15T13:51:11.332Z,25.30
2018-06-15T13:53:43.401Z,25.40
2018-06-15T13:56:17.730Z,25.10
2018-06-15T13:58:49.490Z,24.80
2018-06-15T14:01:20.704Z,25.50
2018-06-15T14:03:55.172Z,25.60
2018-06-15T14:06:28.774Z,25.80
2018-06-15T14:08:59.529Z,25.90
2018-06-15T14:14:22.115Z,27.10
2018-06-15T14:16:55.044Z,26.20
2018-06-15T14:19:28.401Z,26.20
2018-06-15T14:22:04.857Z,25.90
2018-06-15T14:24:37.340Z,25.60
2018-06-15T14:27:11.767Z,25.40
2018-06-15T14:29:44.227Z,24.90
2018-06-15T14:32:20.482Z,24.80
2018-06-15T14:34:52.547Z,24.90
2018-06-15T14:37:45.472Z,23.20
2018-06-15T14:40:18.608Z,24.90
2018-06-15T14:42:53.182Z,25.40
2018-06-15T14:45:25.281Z,25.40
2018-06-15T14:47:59.248Z,24.90
2018-06-15T14:50:33.443Z,24.90
2018-06-15T14:53:09.519Z,25.80
2018-06-15T14:55:40.634Z,25.90
2018-06-15T14:58:11.516Z,25.20
2018-06-15T15:00:44.022Z,26.60
2018-06-15T15:03:16.668Z,25.10
2018-06-15T15:05:52.594Z,25.20
2018-06-15T15:08:25.473Z,25.60
2018-06-15T15:10:58.411Z,26.50
2018-06-15T15:13:33.850Z,26.00
2018-06-15T15:16:09.063Z,25.90
2018-06-15T15:18:42.568Z,24.60
2018-06-15T15:21:20.660Z,25.90
2018-06-15T15:24:14.777Z,25.60
2018-06-15T15:26:52.026Z,25.50
2018-06-15T15:29:26.115Z,24.20
2018-06-15T15:32:03.548Z,25.70
2018-06-15T15:34:36.873Z,25.90
2018-06-15T15:37:12.321Z,25.90
2018-06-15T15:39:43.257Z,25.30
2018-06-15T15:42:20.594Z,24.80
2018-06-15T15:44:57.677Z,24.40
2018-06-15T15:47:30.412Z,24.70
2018-06-15T15:50:06.818Z,24.60
2018-06-15T15:52:42.079Z,24.70
2018-06-15T15:55:14.465Z,25.10
2018-06-15T15:57:59.351Z,25.30
2018-06-15T16:00:31.121Z,25.60
2018-06-15T16:03:07.285Z,25.80
2018-06-15T16:05:40.283Z,26.20
2018-06-15T16:08:15.331Z,26.40
2018-06-15T16:10:48.573Z,26.20
2018-06-15T16:13:21.376Z,26.00
2018-06-15T16:15:53.015Z,25.80
2018-06-15T16:18:23.886Z,25.90
2018-06-15T16:21:07.411Z,26.40
2018-06-15T16:23:48.159Z,26.50
2018-06-15T16:26:20.035Z,26.70
2018-06-15T16:28:51.673Z,26.70
2018-06-15T16:31:23.074Z,26.60
2018-06-15T16:33:55.407Z,24.80
2018-06-15T16:36:32.350Z,26.10
2018-06-15T16:39:06.832Z,26.10
2018-06-15T16:41:39.567Z,25.80
2018-06-15T16:44:15.522Z,25.90
2018-06-15T16:46:46.131Z,25.90
2018-06-15T16:51:57.038Z,26.40
2018-06-15T16:54:27.978Z,26.40
2018-06-15T16:57:03.312Z,26.40
2018-06-15T16:59:36.517Z,25.80
2018-06-15T17:02:09.919Z,26.40
2018-06-15T17:07:47.900Z,26.50
2018-06-15T17:10:19.938Z,26.50
2018-06-15T17:12:52.404Z,25.90
2018-06-15T17:15:29.217Z,25.80
2018-06-15T17:18:02.251Z,25.60
2018-06-15T17:20:33.732Z,25.30
2018-06-15T17:23:05.424Z,25.10
2018-06-15T17:25:37.281Z,24.60
2018-06-15T17:28:08.240Z,24.60
2018-06-15T17:30:48.765Z,24.10
2018-06-15T17:33:22.167Z,24.20
2018-06-15T17:35:57.508Z,24.20
2018-06-15T17:38:31.166Z,24.30
2018-06-15T17:41:05.303Z,24.00
2018-06-15T17:43:35.281Z,24.00
2018-06-15T17:46:08.012Z,23.90
2018-06-15T17:48:42.809Z,23.90
2018-06-15T17:51:14.996Z,24.30
2018-06-15T17:53:52.772Z,24.40
2018-06-15T17:56:24.067Z,25.80
2018-06-15T17:58:55.928Z,24.60
2018-06-15T18:01:31.302Z,24.60
2018-06-15T18:04:02.616Z,24.50
2018-06-15T18:06:40.482Z,24.40
2018-06-15T18:09:16.766Z,24.40
2018-06-15T18:11:47.895Z,24.30
2018-06-15T18:14:19.059Z,24.20
2018-06-15T18:16:51.163Z,24.30
2018-06-15T18:19:26.385Z,24.10
2018-06-15T18:21:58.905Z,25.10
2018-06-15T18:24:31.081Z,23.80
2018-06-15T18:27:03.953Z,23.60
2018-06-15T18:29:34.926Z,23.50
2018-06-15T18:32:06.922Z,23.50
2018-06-15T18:34:39.845Z,24.50
2018-06-15T18:37:13.593Z,23.40
2018-06-15T18:39:45.787Z,23.30
2018-06-15T18:42:19.790Z,23.20
2018-06-15T18:44:53.860Z,23.30
2018-06-15T18:47:28.438Z,23.30
2018-06-15T18:50:00.316Z,23.30
2018-06-15T18:52:34.303Z,23.40
2018-06-15T18:55:05.888Z,23.10
2018-06-15T18:57:37.589Z,22.30
2018-06-15T19:00:18.803Z,22.00
2018-06-15T19:08:20.648Z,21.80
2018-06-15T19:10:52.628Z,21.70
2018-06-15T19:13:25.445Z,22.50
2018-06-15T19:15:57.917Z,22.60
2018-06-15T19:18:32.565Z,22.60
2018-06-15T19:21:05.798Z,22.60
2018-06-15T19:23:40.829Z,22.70
2018-06-15T19:26:13.230Z,22.80
2018-06-15T19:28:45.997Z,22.70
2018-06-15T19:31:19.662Z,22.80
2018-06-15T19:33:53.081Z,22.70
2018-06-15T19:36:25.530Z,22.70
2018-06-15T19:39:06.357Z,22.60
2018-06-15T19:41:37.830Z,22.50
2018-06-15T19:44:27.386Z,22.50
2018-06-15T19:46:57.816Z,22.50
2018-06-15T19:49:27.876Z,22.50
2018-06-15T19:51:59.696Z,22.40
2018-06-15T19:54:35.435Z,22.30
2018-06-15T19:57:07.583Z,22.40
2018-06-15T19:59:38.134Z,22.40
2018-06-15T20:02:14.008Z,22.30
2018-06-15T20:04:57.065Z,22.30
2018-06-15T20:08:00.610Z,22.10
2018-06-15T20:10:34.753Z,22.00
2018-06-15T20:13:05.441Z,22.20
2018-06-15T20:15:37.499Z,22.10
2018-06-15T20:18:09.851Z,21.20
2018-06-15T20:20:41.463Z,22.10
2018-06-15T20:23:20.984Z,22.20
2018-06-15T20:25:55.301Z,22.10
2018-06-15T20:28:32.179Z,22.10
2018-06-15T20:31:05.004Z,22.10
2018-06-15T20:33:39.975Z,21.70
2018-06-15T20:36:14.955Z,21.10
2018-06-15T20:38:49.567Z,20.50
2018-06-15T20:41:21.393Z,21.30
2018-06-15T20:43:54.963Z,21.50
2018-06-15T20:46:31.604Z,21.50
2018-06-15T20:49:06.805Z,21.60
2018-06-15T20:51:39.738Z,21.70
2018-06-15T20:54:11.312Z,21.60
2018-06-15T20:56:48.575Z,21.70
2018-06-15T20:59:19.824Z,21.30
2018-06-15T21:04:38.765Z,21.60
2018-06-15T21:07:11.069Z,21.70
2018-06-15T21:09:47.187Z,21.30
2018-06-15T21:12:24.819Z,21.80
2018-06-15T21:14:59.037Z,21.80
2018-06-15T21:17:33.250Z,21.80
2018-06-15T21:20:12.341Z,21.70
2018-06-15T21:22:46.563Z,21.70
2018-06-15T21:25:25.795Z,21.70
2018-06-15T21:28:05.058Z,21.60
2018-06-15T21:30:40.356Z,21.40
2018-06-15T21:33:13.619Z,21.50
2018-06-15T21:35:52.088Z,21.40
2018-06-15T21:38:27.413Z,21.30
2018-06-15T21:40:59.566Z,21.20
2018-06-15T21:43:32.201Z,21.10
2018-06-15T21:46:04.717Z,21.10
2018-06-15T21:48:36.253Z,21.10
2018-06-15T21:51:10.008Z,21.00
2018-06-15T21:53:41.890Z,20.90
2018-06-15T21:56:14.753Z,20.70
2018-06-15T21:58:46.644Z,21.00
2018-06-15T22:01:19.745Z,20.60
2018-06-15T22:03:54.039Z,20.60
2018-06-15T22:06:50.589Z,20.70
2018-06-15T22:09:26.582Z,20.70
2018-06-15T22:11:58.943Z,20.60
2018-06-15T22:14:30.331Z,20.40
2018-06-15T22:17:16.638Z,20.30
2018-06-15T22:19:48.295Z,20.40
2018-06-15T22:22:20.900Z,20.30
2018-06-15T22:24:59.091Z,20.40
2018-06-15T22:27:31.376Z,20.30
2018-06-15T22:30:11.504Z,20.10
2018-06-15T22:32:44.287Z,20.10
2018-06-15T22:35:15.102Z,20.10
2018-06-15T22:37:45.613Z,20.10
2018-06-15T22:40:16.390Z,20.20
2018-06-15T22:42:48.296Z,20.20
2018-06-15T22:45:18.561Z,20.10
2018-06-15T22:47:50.759Z,19.80
2018-06-15T22:50:22.160Z,20.00
2018-06-15T22:52:52.703Z,19.90
2018-06-15T22:55:23.940Z,19.80
2018-06-15T22:57:56.144Z,19.80
2018-06-15T23:00:27.266Z,19.80
2018-06-15T23:02:58.675Z,19.80
2018-06-15T23:05:29.589Z,19.70
2018-06-15T23:08:03.004Z,19.80
2018-06-15T23:10:33.437Z,19.80
2018-06-15T23:13:05.344Z,19.90
2018-06-15T23:15:35.729Z,19.80
2018-06-15T23:18:06.160Z,19.80
2018-06-15T23:20:39.658Z,19.80
2018-06-15T23:23:11.899Z,19.70
2018-06-15T23:25:43.619Z,19.60
2018-06-15T23:28:16.112Z,19.60
2018-06-15T23:30:46.093Z,19.60
2018-06-15T23:33:18.020Z,19.40
2018-06-15T23:35:48.738Z,19.40
2018-06-15T23:38:19.281Z,19.30
2018-06-15T23:40:49.792Z,19.20
2018-06-15T23:43:21.068Z,19.20
2018-06-15T23:45:52.518Z,19.20
2018-06-15T23:48:25.365Z,19.20
2018-06-15T23:50:55.805Z,19.10
2018-06-15T23:53:27.478Z,19.10
2018-06-15T23:56:00.301Z,19.10
2018-06-15T23:58:31.741Z,18.90
